Time;durP1;ratioP1;P1;durP2;ratioP2;P2;SDS_P1;SDS_P2;PMS_P1;PMS_P2;Temp;Humidity;BMP_temperature;BMP_pressure;BME280_temperature;BME280_humidity;BME280_pressure;Samples;Min_cycle;Max_cycle;Signal;HPM_P1;HPM_P2
2021/12/09 00:01:03;;;;;;;26.80;12.48;;;;;;;;;;4986664;28;20027;-76
2021/12/09 00:03:35;;;;;;;31.58;11.77;;;;;;;;;;4994989;28;20043;-75
2021/12/09 00:06:03;;;;;;;23.23;11.43;;;;;;;;;;4985360;28;20088;-76
2021/12/09 00:08:30;;;;;;;23.25;11.73;;;;;;;;;;4980722;28;20117;-76
2021/12/09 00:10:57;;;;;;;26.88;11.93;;;;;;;;;;4989413;28;20042;-74
2021/12/09 00:13:23;;;;;;;25.15;12.10;;;;;;;;;;4980765;28;20038;-75
2021/12/09 00:15:51;;;;;;;21.45;11.40;;;;;;;;;;5013176;28;20033;-76
2021/12/09 00:18:17;;;;;;;25.73;11.77;;;;;;;;;;5000987;28;20040;-75
2021/12/09 00:20:44;;;;;;;23.83;12.23;;;;;;;;;;4985667;28;20068;-75
2021/12/09 00:23:10;;;;;;;27.30;13.18;;;;;;;;;;4981916;28;20740;-76
2021/12/09 00:25:36;;;;;;;29.85;13.15;;;;;;;;;;5002900;28;20034;-74
2021/12/09 00:28:03;;;;;;;27.50;13.32;;;;;;;;;;4984306;28;20022;-76
2021/12/09 00:30:30;;;;;;;27.58;13.13;;;;;;;;;;4986649;28;20464;-76
2021/12/09 00:32:57;;;;;;;23.65;13.30;;;;;;;;;;4986354;28;20041;-76
2021/12/09 00:35:29;;;;;;;29.77;13.00;;;;;;;;;;4985374;28;20023;-75
2021/12/09 00:38:04;;;;;;;27.45;12.77;;;;;;;;;;4983200;28;20026;-76
2021/12/09 00:40:30;;;;;;;33.10;13.85;;;;;;;;;;4986144;28;20483;-75
2021/12/09 00:42:56;;;;;;;28.02;12.80;;;;;;;;;;4981881;28;20077;-75
2021/12/09 00:45:23;;;;;;;34.35;13.63;;;;;;;;;;4984092;28;20174;-75
2021/12/09 00:47:49;;;;;;;26.77;13.95;;;;;;;;;;4979198;28;20163;-75
2021/12/09 00:50:15;;;;;;;34.88;14.23;;;;;;;;;;4982001;28;20066;-75
2021/12/09 00:52:41;;;;;;;31.92;13.07;;;;;;;;;;5001195;28;20033;-75
2021/12/09 00:55:09;;;;;;;26.80;13.82;;;;;;;;;;4988541;28;20101;-76
2021/12/09 00:57:36;;;;;;;24.75;12.90;;;;;;;;;;4985978;28;20101;-75
2021/12/09 01:00:05;;;;;;;40.90;13.75;;;;;;;;;;4984283;28;20113;-75
2021/12/09 01:02:31;;;;;;;29.35;12.23;;;;;;;;;;4998857;28;20027;-74
2021/12/09 01:04:57;;;;;;;27.92;13.27;;;;;;;;;;4982001;28;20054;-75
2021/12/09 01:07:23;;;;;;;31.90;13.70;;;;;;;;;;4985050;28;20045;-75
2021/12/09 01:09:49;;;;;;;28.23;12.63;;;;;;;;;;5013511;28;20480;-74
2021/12/09 01:12:15;;;;;;;27.40;12.88;;;;;;;;;;4987069;28;20506;-75
2021/12/09 01:14:41;;;;;;;31.17;12.57;;;;;;;;;;4999517;28;20041;-75
2021/12/09 01:17:09;;;;;;;29.65;12.13;;;;;;;;;;4989122;28;20062;-75
2021/12/09 01:19:36;;;;;;;26.15;14.07;;;;;;;;;;4982892;28;20054;-76
2021/12/09 01:22:02;;;;;;;30.02;12.98;;;;;;;;;;4986945;28;20496;-76
2021/12/09 01:24:28;;;;;;;31.10;13.75;;;;;;;;;;5001949;28;20030;-76
2021/12/09 01:26:56;;;;;;;26.38;13.40;;;;;;;;;;4987904;28;20040;-75
2021/12/09 01:29:31;;;;;;;26.60;13.63;;;;;;;;;;4995170;28;20395;-76
2021/12/09 01:32:01;;;;;;;34.10;14.20;;;;;;;;;;4980142;28;20038;-75
2021/12/09 01:34:27;;;;;;;36.17;14.73;;;;;;;;;;4983230;28;20038;-76
2021/12/09 01:36:54;;;;;;;31.80;15.05;;;;;;;;;;4980617;28;20034;-75
2021/12/09 01:39:21;;;;;;;35.83;13.63;;;;;;;;;;4983794;28;20503;-75
2021/12/09 01:41:47;;;;;;;31.40;13.57;;;;;;;;;;4982297;28;20221;-74
2021/12/09 01:44:14;;;;;;;25.38;13.90;;;;;;;;;;4986618;28;20121;-75
2021/12/09 01:46:40;;;;;;;32.63;13.25;;;;;;;;;;4987345;28;20053;-74
2021/12/09 01:49:06;;;;;;;26.02;12.10;;;;;;;;;;4984227;28;20049;-75
2021/12/09 01:51:32;;;;;;;29.67;12.60;;;;;;;;;;4987021;28;20026;-74
2021/12/09 01:53:58;;;;;;;29.42;11.77;;;;;;;;;;4986140;28;20044;-75
2021/12/09 01:56:25;;;;;;;31.35;13.48;;;;;;;;;;4988243;28;20031;-76
2021/12/09 01:58:53;;;;;;;25.25;11.98;;;;;;;;;;5006588;28;20053;-76
2021/12/09 02:01:19;;;;;;;34.83;12.40;;;;;;;;;;4990618;28;20502;-74
2021/12/09 02:03:45;;;;;;;27.52;11.60;;;;;;;;;;4989498;28;20030;-76
2021/12/09 02:06:11;;;;;;;28.48;11.90;;;;;;;;;;4988267;28;20040;-75
2021/12/09 02:08:38;;;;;;;24.52;10.93;;;;;;;;;;4987856;28;20030;-77
2021/12/09 02:11:04;;;;;;;26.83;11.07;;;;;;;;;;4992152;28;20269;-75
2021/12/09 02:13:30;;;;;;;30.65;10.55;;;;;;;;;;4983491;28;20137;-74
2021/12/09 02:15:56;;;;;;;34.42;11.25;;;;;;;;;;4987383;28;20101;-75
2021/12/09 02:18:23;;;;;;;24.23;10.20;;;;;;;;;;4985584;28;20539;-76
2021/12/09 02:21:06;;;;;;;32.42;11.73;;;;;;;;;;4987489;28;20058;-75
2021/12/09 02:23:32;;;;;;;24.65;10.30;;;;;;;;;;4986788;28;20026;-75
2021/12/09 02:25:59;;;;;;;29.05;11.48;;;;;;;;;;4986050;28;20174;-74
2021/12/09 02:28:26;;;;;;;24.75;10.70;;;;;;;;;;4993176;28;20030;-76
2021/12/09 02:30:52;;;;;;;26.52;10.20;;;;;;;;;;4983276;28;20112;-75
2021/12/09 02:33:19;;;;;;;25.80;10.93;;;;;;;;;;4993557;28;20026;-76
2021/12/09 02:35:45;;;;;;;25.40;10.40;;;;;;;;;;4989979;28;20555;-75
2021/12/09 02:38:11;;;;;;;28.15;12.20;;;;;;;;;;4987808;28;20033;-76
2021/12/09 02:40:37;;;;;;;31.75;10.77;;;;;;;;;;5001452;28;20023;-75
2021/12/09 02:43:08;;;;;;;38.45;12.82;;;;;;;;;;4970398;28;20583;-74
2021/12/09 02:45:35;;;;;;;37.42;11.25;;;;;;;;;;4986459;28;20034;-75
2021/12/09 02:48:01;;;;;;;26.45;10.23;;;;;;;;;;4983562;28;20088;-75
2021/12/09 02:50:27;;;;;;;26.13;10.07;;;;;;;;;;4988802;28;20117;-76
2021/12/09 02:52:53;;;;;;;27.92;10.95;;;;;;;;;;4987517;28;20038;-75
2021/12/09 02:55:19;;;;;;;26.58;10.52;;;;;;;;;;4988392;28;20072;-76
2021/12/09 02:57:45;;;;;;;28.00;11.05;;;;;;;;;;4988400;28;20022;-75
2021/12/09 03:00:12;;;;;;;26.58;10.38;;;;;;;;;;4984093;28;20027;-75
2021/12/09 03:02:38;;;;;;;30.13;10.63;;;;;;;;;;4990162;28;20045;-76
2021/12/09 03:05:07;;;;;;;32.17;9.73;;;;;;;;;;4987723;28;20087;-76
2021/12/09 03:07:36;;;;;;;31.13;10.05;;;;;;;;;;4984025;28;20069;-76
2021/12/09 03:10:21;;;;;;;20.73;10.45;;;;;;;;;;5006747;28;20507;-74
2021/12/09 03:12:51;;;;;;;26.65;11.05;;;;;;;;;;4987754;28;20054;-78
2021/12/09 03:15:18;;;;;;;24.67;9.95;;;;;;;;;;4985701;28;20114;-75
2021/12/09 03:17:44;;;;;;;26.35;10.60;;;;;;;;;;4984165;28;20568;-76
2021/12/09 03:20:12;;;;;;;28.42;11.00;;;;;;;;;;5000347;28;20077;-75
2021/12/09 03:22:39;;;;;;;26.75;10.88;;;;;;;;;;4989281;28;20043;-74
2021/12/09 03:25:07;;;;;;;26.20;9.55;;;;;;;;;;4999928;28;20041;-74
2021/12/09 03:27:33;;;;;;;33.83;11.70;;;;;;;;;;4988531;28;20030;-75
2021/12/09 03:29:59;;;;;;;23.58;10.15;;;;;;;;;;4987744;28;20133;-75
2021/12/09 03:32:28;;;;;;;28.67;11.07;;;;;;;;;;5003739;28;20030;-75
2021/12/09 03:34:54;;;;;;;26.92;10.85;;;;;;;;;;4984967;28;20041;-75
2021/12/09 03:37:23;;;;;;;27.35;10.20;;;;;;;;;;4985303;28;20030;-74
2021/12/09 03:39:50;;;;;;;29.58;10.10;;;;;;;;;;5001568;28;20029;-74
2021/12/09 03:42:19;;;;;;;30.20;10.13;;;;;;;;;;4984622;28;20492;-76
2021/12/09 03:44:45;;;;;;;31.30;10.50;;;;;;;;;;4989123;28;20034;-76
2021/12/09 03:47:12;;;;;;;28.88;10.23;;;;;;;;;;4986081;28;20169;-75
2021/12/09 03:49:41;;;;;;;22.30;9.63;;;;;;;;;;4980843;28;20036;-75
2021/12/09 03:52:07;;;;;;;33.20;9.93;;;;;;;;;;4985390;28;20038;-74
2021/12/09 03:54:33;;;;;;;27.23;10.60;;;;;;;;;;4985423;28;20371;-75
2021/12/09 03:57:00;;;;;;;23.45;9.70;;;;;;;;;;4982712;28;20334;-74
2021/12/09 03:59:26;;;;;;;28.15;9.95;;;;;;;;;;4989030;28;20337;-76
2021/12/09 04:01:52;;;;;;;25.05;10.80;;;;;;;;;;4986410;28;20061;-74
2021/12/09 04:04:19;;;;;;;25.52;10.27;;;;;;;;;;4980713;28;20100;-75
2021/12/09 04:06:45;;;;;;;29.15;9.25;;;;;;;;;;4984926;28;20130;-75
2021/12/09 04:09:13;;;;;;;27.02;9.60;;;;;;;;;;4984990;28;20506;-74
2021/12/09 04:11:39;;;;;;;34.60;10.10;;;;;;;;;;4990899;28;20018;-75
2021/12/09 04:14:05;;;;;;;30.63;9.48;;;;;;;;;;4979155;28;20062;-77
2021/12/09 04:16:32;;;;;;;29.60;9.23;;;;;;;;;;4987750;28;20065;-75
2021/12/09 04:18:58;;;;;;;25.42;9.68;;;;;;;;;;4984011;28;20049;-75
2021/12/09 04:21:24;;;;;;;27.38;8.68;;;;;;;;;;4964013;28;20092;-76
2021/12/09 04:23:50;;;;;;;24.10;8.80;;;;;;;;;;4982159;28;20037;-75
2021/12/09 04:26:16;;;;;;;26.05;10.98;;;;;;;;;;4983948;28;20045;-75
2021/12/09 04:28:44;;;;;;;23.80;8.93;;;;;;;;;;5007378;28;20053;-76
2021/12/09 04:31:10;;;;;;;26.80;9.43;;;;;;;;;;4981366;28;20492;-75
2021/12/09 04:33:36;;;;;;;23.20;8.57;;;;;;;;;;5006477;28;20192;-76
2021/12/09 04:36:02;;;;;;;24.40;8.60;;;;;;;;;;4987617;28;20468;-74
2021/12/09 04:41:49;;;;;;;;;;;;;;;;;;;;;
2021/12/09 04:44:37;;;;;;;27.25;9.18;;;;;;;;;;4936626;23;20063;-74
2021/12/09 04:47:05;;;;;;;21.80;8.43;;;;;;;;;;4939151;29;20086;-75
2021/12/09 04:49:31;;;;;;;23.05;8.32;;;;;;;;;;4938419;29;20257;-75
2021/12/09 04:51:59;;;;;;;23.58;8.38;;;;;;;;;;4956128;28;20032;-75
2021/12/09 04:54:26;;;;;;;27.73;9.02;;;;;;;;;;4936862;28;20480;-75
2021/12/09 04:56:52;;;;;;;28.58;8.45;;;;;;;;;;4941777;28;20024;-75
2021/12/09 04:59:18;;;;;;;29.73;8.70;;;;;;;;;;4948734;28;20397;-75
2021/12/09 05:01:49;;;;;;;26.60;7.43;;;;;;;;;;4939330;28;20062;-74
2021/12/09 05:04:15;;;;;;;24.63;8.40;;;;;;;;;;4953076;28;20031;-76
2021/12/09 05:06:41;;;;;;;18.02;7.72;;;;;;;;;;4939461;28;20036;-75
2021/12/09 05:09:11;;;;;;;37.60;8.70;;;;;;;;;;4953394;28;20078;-75
2021/12/09 05:14:07;;;;;;;27.38;8.43;;;;;;;;;;4936331;29;20047;-76
2021/12/09 05:16:33;;;;;;;23.58;8.32;;;;;;;;;;4940403;28;20027;-75
2021/12/09 05:18:59;;;;;;;32.03;8.77;;;;;;;;;;4940542;28;20042;-75
2021/12/09 05:21:29;;;;;;;30.08;8.38;;;;;;;;;;4942577;28;20028;-74
2021/12/09 05:23:58;;;;;;;34.10;8.83;;;;;;;;;;4954266;28;20424;-76
2021/12/09 05:26:29;;;;;;;23.23;8.48;;;;;;;;;;4958347;28;20089;-75
2021/12/09 05:28:57;;;;;;;22.08;7.72;;;;;;;;;;4940431;28;20024;-74
2021/12/09 05:34:09;;;;;;;30.42;7.60;;;;;;;;;;4945683;29;20420;-75
2021/12/09 05:36:35;;;;;;;24.45;7.63;;;;;;;;;;4961188;28;20117;-76
2021/12/09 05:39:01;;;;;;;27.65;7.43;;;;;;;;;;4959349;28;20061;-76
2021/12/09 05:41:27;;;;;;;18.65;6.90;;;;;;;;;;4954533;28;20082;-75
2021/12/09 05:43:53;;;;;;;17.15;7.13;;;;;;;;;;4939147;29;20132;-76
2021/12/09 05:46:22;;;;;;;28.65;6.60;;;;;;;;;;4946634;28;20552;-75
2021/12/09 05:48:48;;;;;;;21.85;7.60;;;;;;;;;;4946987;28;20042;-74
2021/12/09 05:51:14;;;;;;;28.02;7.47;;;;;;;;;;4946338;28;20031;-74
2021/12/09 05:53:40;;;;;;;25.40;7.43;;;;;;;;;;4961419;28;20081;-74
2021/12/09 05:56:06;;;;;;;26.42;8.32;;;;;;;;;;4946498;29;20089;-77
2021/12/09 05:58:32;;;;;;;26.50;8.45;;;;;;;;;;4945838;28;20049;-74
2021/12/09 06:00:58;;;;;;;14.35;7.30;;;;;;;;;;4947438;28;20019;-74
2021/12/09 06:03:24;;;;;;;30.90;8.52;;;;;;;;;;4943505;28;20888;-74
2021/12/09 06:05:51;;;;;;;23.70;8.15;;;;;;;;;;4962136;28;20035;-75
2021/12/09 06:08:17;;;;;;;26.75;7.53;;;;;;;;;;4944773;28;20035;-74
2021/12/09 06:10:43;;;;;;;19.90;7.72;;;;;;;;;;4939901;28;20066;-77
2021/12/09 06:13:11;;;;;;;27.17;7.15;;;;;;;;;;4954858;28;20190;-75
2021/12/09 06:15:37;;;;;;;21.48;8.18;;;;;;;;;;4942013;29;20031;-76
2021/12/09 06:18:03;;;;;;;24.40;7.28;;;;;;;;;;4945591;28;20111;-75
2021/12/09 06:20:29;;;;;;;20.63;7.65;;;;;;;;;;4938720;28;20114;-76
2021/12/09 06:22:55;;;;;;;26.42;7.70;;;;;;;;;;4941035;28;20126;-77
2021/12/09 06:25:22;;;;;;;24.88;8.18;;;;;;;;;;4946073;28;20343;-77
2021/12/09 06:27:48;;;;;;;24.35;7.80;;;;;;;;;;4946599;28;20468;-75
2021/12/09 06:30:15;;;;;;;26.02;8.90;;;;;;;;;;4959296;28;20107;-76
2021/12/09 06:32:41;;;;;;;23.30;7.20;;;;;;;;;;4959025;28;20392;-74
2021/12/09 06:35:08;;;;;;;27.83;8.27;;;;;;;;;;4940522;28;20027;-74
2021/12/09 06:37:38;;;;;;;24.60;7.68;;;;;;;;;;4957115;28;20110;-77
2021/12/09 06:40:05;;;;;;;28.83;8.45;;;;;;;;;;4944542;28;20118;-76
2021/12/09 06:42:31;;;;;;;18.90;6.97;;;;;;;;;;4947113;28;20086;-74
2021/12/09 06:44:57;;;;;;;25.33;9.13;;;;;;;;;;4963458;28;20109;-75
2021/12/09 06:47:23;;;;;;;26.08;7.15;;;;;;;;;;4948870;29;20066;-77
2021/12/09 06:49:50;;;;;;;24.67;8.27;;;;;;;;;;4963540;28;20133;-77
2021/12/09 06:52:16;;;;;;;24.25;7.43;;;;;;;;;;4949504;28;20062;-77
2021/12/09 06:54:42;;;;;;;25.42;7.80;;;;;;;;;;4959999;28;20554;-78
2021/12/09 06:57:08;;;;;;;32.35;8.43;;;;;;;;;;4945084;28;20054;-77
2021/12/09 06:59:34;;;;;;;28.45;9.52;;;;;;;;;;4945240;28;20031;-78
2021/12/09 07:02:01;;;;;;;29.38;8.73;;;;;;;;;;4959564;28;20504;-76
2021/12/09 07:04:27;;;;;;;28.73;8.57;;;;;;;;;;4947627;28;20078;-77
2021/12/09 07:06:55;;;;;;;27.45;7.95;;;;;;;;;;4951912;28;20511;-76
2021/12/09 07:09:27;;;;;;;25.38;8.40;;;;;;;;;;4946436;28;20031;-76
2021/12/09 07:11:53;;;;;;;24.77;8.57;;;;;;;;;;4946772;28;20087;-74
2021/12/09 07:14:19;;;;;;;23.25;8.70;;;;;;;;;;4936302;29;20078;-75
2021/12/09 07:16:45;;;;;;;20.55;8.45;;;;;;;;;;4952870;28;20028;-76
2021/12/09 07:19:12;;;;;;;26.00;10.35;;;;;;;;;;4935728;29;20035;-75
2021/12/09 07:21:38;;;;;;;21.50;9.10;;;;;;;;;;4944042;28;20474;-75
2021/12/09 07:24:04;;;;;;;22.88;8.90;;;;;;;;;;4954853;28;20035;-76
2021/12/09 07:26:32;;;;;;;25.02;9.73;;;;;;;;;;4957040;28;20120;-76
2021/12/09 07:28:58;;;;;;;30.15;10.00;;;;;;;;;;4943717;29;20038;-75
2021/12/09 07:31:24;;;;;;;24.10;9.27;;;;;;;;;;4947703;28;20032;-75
2021/12/09 07:33:51;;;;;;;26.38;9.35;;;;;;;;;;4946956;28;20033;-76
2021/12/09 07:36:17;;;;;;;27.90;9.93;;;;;;;;;;4946539;28;20107;-77
2021/12/09 07:38:46;;;;;;;24.67;10.60;;;;;;;;;;4960327;28;20031;-79
2021/12/09 07:41:12;;;;;;;26.90;10.38;;;;;;;;;;4948006;28;20069;-77
2021/12/09 07:43:38;;;;;;;26.55;10.02;;;;;;;;;;4961018;28;20058;-77
2021/12/09 07:46:04;;;;;;;26.65;9.60;;;;;;;;;;4945978;28;20118;-77
2021/12/09 07:48:31;;;;;;;28.63;10.27;;;;;;;;;;4959531;28;20031;-76
2021/12/09 07:50:57;;;;;;;28.33;9.82;;;;;;;;;;4961312;28;20068;-77
2021/12/09 07:53:23;;;;;;;37.42;11.60;;;;;;;;;;4946761;28;20030;-75
2021/12/09 07:55:50;;;;;;;30.17;11.25;;;;;;;;;;4959701;28;20453;-76
2021/12/09 07:58:16;;;;;;;27.45;10.90;;;;;;;;;;4944725;28;20039;-75
2021/12/09 08:00:42;;;;;;;29.05;9.98;;;;;;;;;;4963237;28;20070;-76
2021/12/09 08:03:08;;;;;;;25.23;9.85;;;;;;;;;;4945873;28;20031;-76
2021/12/09 08:05:36;;;;;;;34.70;11.52;;;;;;;;;;4936871;28;20024;-77
2021/12/09 08:08:03;;;;;;;22.25;9.57;;;;;;;;;;4940840;28;20042;-76
2021/12/09 08:10:29;;;;;;;25.77;10.25;;;;;;;;;;4943956;29;20465;-75
2021/12/09 08:12:57;;;;;;;27.50;8.70;;;;;;;;;;4945875;28;20046;-76
2021/12/09 08:15:23;;;;;;;24.83;9.40;;;;;;;;;;4941834;28;20027;-76
2021/12/09 08:18:25;;;;;;;31.90;10.43;;;;;;;;;;4963616;28;20552;-75
2021/12/09 08:20:51;;;;;;;19.73;8.85;;;;;;;;;;4946733;28;20032;-75
2021/12/09 08:23:17;;;;;;;24.17;8.40;;;;;;;;;;4959092;28;20031;-76
2021/12/09 08:25:44;;;;;;;20.50;8.68;;;;;;;;;;4947596;28;20027;-75
2021/12/09 08:28:11;;;;;;;17.98;8.35;;;;;;;;;;4945959;28;20031;-74
2021/12/09 08:30:38;;;;;;;28.30;9.40;;;;;;;;;;4942138;28;20039;-75
2021/12/09 08:33:05;;;;;;;28.88;8.57;;;;;;;;;;4952852;28;20038;-74
2021/12/09 08:35:32;;;;;;;23.23;8.70;;;;;;;;;;4956415;28;20043;-76
2021/12/09 08:37:58;;;;;;;18.02;8.75;;;;;;;;;;4958396;28;20039;-77
2021/12/09 08:40:25;;;;;;;21.42;9.15;;;;;;;;;;4946163;28;20067;-77
2021/12/09 08:42:51;;;;;;;19.35;8.35;;;;;;;;;;4944118;28;20068;-75
2021/12/09 08:45:18;;;;;;;19.90;9.50;;;;;;;;;;4944541;28;20062;-75
2021/12/09 08:47:44;;;;;;;23.40;9.50;;;;;;;;;;4941837;29;20353;-76
2021/12/09 08:50:12;;;;;;;24.85;11.05;;;;;;;;;;4945843;28;20034;-76
2021/12/09 08:52:38;;;;;;;23.73;10.27;;;;;;;;;;4957379;28;20031;-74
2021/12/09 08:55:05;;;;;;;25.92;11.70;;;;;;;;;;4944358;29;20125;-74
2021/12/09 08:57:32;;;;;;;29.15;12.18;;;;;;;;;;4949582;28;20030;-75
2021/12/09 08:59:59;;;;;;;36.53;13.30;;;;;;;;;;4947215;28;20030;-77
2021/12/09 09:02:25;;;;;;;29.83;11.75;;;;;;;;;;4950216;29;20042;-75
2021/12/09 09:04:51;;;;;;;35.63;15.48;;;;;;;;;;4966250;28;20027;-74
2021/12/09 09:07:17;;;;;;;29.00;12.00;;;;;;;;;;4949069;29;20054;-74
2021/12/09 09:09:43;;;;;;;38.67;13.68;;;;;;;;;;4949335;29;20507;-74
2021/12/09 09:12:11;;;;;;;25.10;12.90;;;;;;;;;;4949307;28;20050;-75
2021/12/09 09:14:37;;;;;;;29.95;13.68;;;;;;;;;;4950116;28;20035;-77
2021/12/09 09:17:04;;;;;;;32.65;13.32;;;;;;;;;;4944371;28;20049;-78
2021/12/09 09:19:30;;;;;;;33.33;14.30;;;;;;;;;;4945998;28;20032;-76
2021/12/09 09:21:56;;;;;;;29.02;13.25;;;;;;;;;;4948378;28;20038;-74
2021/12/09 09:24:22;;;;;;;30.70;13.27;;;;;;;;;;4947603;29;20035;-75
2021/12/09 09:26:49;;;;;;;34.35;14.10;;;;;;;;;;4948538;28;20031;-75
2021/12/09 09:29:15;;;;;;;30.63;13.32;;;;;;;;;;4945759;28;20064;-75
2021/12/09 09:31:42;;;;;;;32.95;14.35;;;;;;;;;;4951660;28;20066;-75
2021/12/09 09:34:10;;;;;;;27.67;14.15;;;;;;;;;;4949994;28;20039;-76
2021/12/09 09:36:39;;;;;;;35.47;13.88;;;;;;;;;;4962656;28;20463;-75
2021/12/09 09:39:16;;;;;;;30.02;13.02;;;;;;;;;;4949003;28;20144;-76
2021/12/09 09:41:42;;;;;;;36.65;13.50;;;;;;;;;;4965732;28;20058;-76
2021/12/09 09:44:17;;;;;;;31.67;14.43;;;;;;;;;;4946943;28;20157;-73
2021/12/09 09:46:44;;;;;;;30.27;13.82;;;;;;;;;;4964956;28;20043;-75
2021/12/09 09:49:10;;;;;;;29.52;14.63;;;;;;;;;;4962219;28;20053;-75
2021/12/09 09:51:37;;;;;;;24.88;13.68;;;;;;;;;;4949368;29;20035;-75
2021/12/09 09:54:04;;;;;;;32.17;15.02;;;;;;;;;;4947431;28;20050;-76
2021/12/09 09:56:32;;;;;;;42.63;18.13;;;;;;;;;;4946501;28;20031;-74
2021/12/09 09:59:04;;;;;;;38.03;17.88;;;;;;;;;;4945874;28;20077;-75
2021/12/09 10:01:33;;;;;;;37.17;16.60;;;;;;;;;;4946857;29;20059;-75
2021/12/09 10:04:10;;;;;;;40.13;18.02;;;;;;;;;;4950049;28;20125;-73
2021/12/09 10:06:36;;;;;;;36.22;16.90;;;;;;;;;;4954520;28;20102;-75
2021/12/09 10:09:05;;;;;;;34.60;17.08;;;;;;;;;;4946969;28;20330;-77
2021/12/09 10:11:31;;;;;;;38.60;19.60;;;;;;;;;;4951486;28;20131;-74
2021/12/09 10:14:07;;;;;;;36.17;17.42;;;;;;;;;;4949214;28;20043;-75
2021/12/09 10:16:34;;;;;;;40.55;18.40;;;;;;;;;;4944624;28;20122;-77
2021/12/09 10:19:00;;;;;;;32.47;17.63;;;;;;;;;;4945100;28;20107;-76
2021/12/09 10:21:28;;;;;;;40.58;17.02;;;;;;;;;;4948394;28;20502;-76
2021/12/09 10:23:57;;;;;;;35.53;17.85;;;;;;;;;;4950220;28;20035;-75
2021/12/09 10:26:26;;;;;;;40.20;18.40;;;;;;;;;;4945214;29;20047;-75
2021/12/09 10:29:02;;;;;;;46.40;19.95;;;;;;;;;;4941563;29;20047;-74
2021/12/09 10:31:30;;;;;;;39.80;19.88;;;;;;;;;;4961758;28;20074;-73
2021/12/09 10:34:59;;;;;;;40.67;19.83;;;;;;;;;;4946185;28;20035;-75
2021/12/09 10:36:55;;;;;;;38.47;18.27;;;;;;;;;;4944978;29;20454;-74
2021/12/09 10:39:27;;;;;;;43.90;21.83;;;;;;;;;;4940437;29;20023;-75
2021/12/09 10:41:54;;;;;;;42.08;20.10;;;;;;;;;;4959175;28;20084;-76
2021/12/09 10:44:41;;;;;;;35.83;19.70;;;;;;;;;;4938006;28;20559;-75
2021/12/09 10:47:11;;;;;;;45.03;20.13;;;;;;;;;;4944693;28;20036;-75
2021/12/09 10:49:46;;;;;;;45.42;21.40;;;;;;;;;;4958164;28;20033;-75
2021/12/09 10:52:23;;;;;;;48.75;22.50;;;;;;;;;;4939964;29;20035;-75
2021/12/09 10:54:49;;;;;;;44.47;21.92;;;;;;;;;;4947950;28;20031;-76
2021/12/09 10:57:29;;;;;;;50.80;21.85;;;;;;;;;;4945415;28;20420;-76
2021/12/09 10:59:56;;;;;;;42.25;22.05;;;;;;;;;;4946408;28;20066;-75
2021/12/09 11:02:23;;;;;;;51.70;24.75;;;;;;;;;;4947516;28;20456;-76
2021/12/09 11:04:59;;;;;;;46.45;23.88;;;;;;;;;;4944726;28;20020;-73
2021/12/09 11:07:29;;;;;;;46.95;23.48;;;;;;;;;;4943480;28;20024;-76
2021/12/09 11:10:19;;;;;;;48.67;23.33;;;;;;;;;;4955215;28;20035;-75
2021/12/09 11:12:56;;;;;;;42.13;23.30;;;;;;;;;;4960863;28;20185;-74
2021/12/09 11:15:24;;;;;;;46.47;23.08;;;;;;;;;;4946181;28;20054;-76
2021/12/09 11:17:52;;;;;;;44.97;22.85;;;;;;;;;;4945302;28;20047;-75
2021/12/09 11:20:38;;;;;;;49.08;24.35;;;;;;;;;;4944643;28;20057;-75
2021/12/09 11:23:23;;;;;;;45.20;23.27;;;;;;;;;;4944393;28;20039;-75
2021/12/09 11:25:50;;;;;;;41.20;22.25;;;;;;;;;;4958399;28;20162;-76
2021/12/09 11:28:16;;;;;;;46.22;24.17;;;;;;;;;;4945767;28;20043;-77
2021/12/09 11:31:04;;;;;;;41.47;22.10;;;;;;;;;;4943408;28;20039;-76
2021/12/09 11:33:37;;;;;;;45.97;23.13;;;;;;;;;;4943732;29;20075;-74
2021/12/09 11:36:03;;;;;;;40.92;23.27;;;;;;;;;;4942620;28;20023;-75
2021/12/09 11:38:53;;;;;;;41.38;24.83;;;;;;;;;;4940595;28;20100;-75
2021/12/09 11:41:30;;;;;;;44.15;24.63;;;;;;;;;;4941213;29;20074;-74
2021/12/09 11:43:56;;;;;;;44.47;25.85;;;;;;;;;;4943189;28;20489;-75
2021/12/09 11:46:22;;;;;;;43.65;24.30;;;;;;;;;;4941176;28;20490;-75
2021/12/09 11:48:50;;;;;;;50.47;25.83;;;;;;;;;;4943288;28;20445;-76
2021/12/09 11:51:16;;;;;;;48.42;25.40;;;;;;;;;;4943087;29;20097;-75
2021/12/09 11:53:44;;;;;;;47.83;26.13;;;;;;;;;;4963047;28;20055;-76
2021/12/09 11:59:19;;;;;;;49.38;25.42;;;;;;;;;;4945499;29;20063;-76
2021/12/09 12:21:03;;;;;;;42.55;27.20;;;;;;;;;;4942580;29;20124;-76
2021/12/09 12:29:39;;;;;;;44.13;27.38;;;;;;;;;;4941328;29;20445;-76
2021/12/09 12:32:59;;;;;;;46.50;27.58;;;;;;;;;;4939411;28;20036;-77
2021/12/09 12:40:55;;;;;;;48.38;29.27;;;;;;;;;;4942622;29;20118;-77
2021/12/09 12:43:39;;;;;;;51.83;29.83;;;;;;;;;;4956028;28;20055;-77
2021/12/09 12:46:34;;;;;;;50.17;28.27;;;;;;;;;;4944964;28;20036;-75
2021/12/09 12:49:53;;;;;;;52.20;29.17;;;;;;;;;;4957338;28;20239;-76
2021/12/09 12:51:55;;;;;;;50.75;29.27;;;;;;;;;;4938275;29;20039;-75
2021/12/09 12:54:38;;;;;;;55.47;29.30;;;;;;;;;;4955156;28;20031;-76
2021/12/09 12:57:13;;;;;;;51.70;29.13;;;;;;;;;;4957114;28;20050;-78
2021/12/09 12:59:41;;;;;;;51.83;28.98;;;;;;;;;;4942655;28;20035;-76
2021/12/09 13:02:28;;;;;;;58.63;29.23;;;;;;;;;;4944253;28;20318;-75
2021/12/09 13:05:09;;;;;;;52.00;29.27;;;;;;;;;;4940478;29;20501;-75
2021/12/09 13:13:16;;;;;;;53.92;29.33;;;;;;;;;;4943036;29;20047;-76
2021/12/09 13:16:03;;;;;;;54.78;28.83;;;;;;;;;;4945772;28;20024;-76
2021/12/09 13:18:43;;;;;;;51.08;30.45;;;;;;;;;;4944162;28;20119;-75
2021/12/09 13:21:28;;;;;;;56.95;31.40;;;;;;;;;;4940691;28;20177;-76
2021/12/09 13:24:13;;;;;;;56.45;30.08;;;;;;;;;;4957163;28;20049;-76
2021/12/09 13:26:59;;;;;;;57.78;30.33;;;;;;;;;;4942624;29;20031;-73
2021/12/09 13:29:35;;;;;;;56.47;30.55;;;;;;;;;;4946213;29;20035;-75
2021/12/09 13:32:22;;;;;;;56.65;30.13;;;;;;;;;;4940672;28;20057;-76
2021/12/09 13:35:03;;;;;;;61.83;30.77;;;;;;;;;;4950019;28;20045;-76
2021/12/09 13:37:49;;;;;;;59.28;30.83;;;;;;;;;;4943627;28;20042;-76
2021/12/09 13:40:23;;;;;;;53.28;29.88;;;;;;;;;;4940684;28;20056;-76
2021/12/09 13:45:57;;;;;;;52.47;29.58;;;;;;;;;;4946820;29;20163;-74
2021/12/09 13:48:40;;;;;;;60.63;30.55;;;;;;;;;;4946758;29;20031;-75
2021/12/09 13:51:29;;;;;;;53.67;29.15;;;;;;;;;;4945254;28;20039;-75
2021/12/09 13:54:18;;;;;;;57.92;29.48;;;;;;;;;;4956793;28;20209;-75
2021/12/09 13:56:45;;;;;;;53.63;28.92;;;;;;;;;;4945154;29;20038;-75
2021/12/09 13:59:18;;;;;;;53.53;31.17;;;;;;;;;;4945886;28;20054;-76
2021/12/09 14:01:45;;;;;;;52.08;28.05;;;;;;;;;;4944143;29;20034;-75
2021/12/09 14:04:11;;;;;;;43.97;28.27;;;;;;;;;;4946759;29;20089;-76
2021/12/09 14:06:46;;;;;;;62.53;32.20;;;;;;;;;;4947467;28;20042;-75
2021/12/09 14:09:12;;;;;;;53.75;31.00;;;;;;;;;;4962359;28;20027;-75
2021/12/09 14:11:47;;;;;;;52.30;29.33;;;;;;;;;;4962319;28;20122;-75
2021/12/09 14:14:19;;;;;;;52.53;28.67;;;;;;;;;;4944226;28;20058;-75
2021/12/09 14:16:54;;;;;;;48.83;29.15;;;;;;;;;;4942492;29;20027;-75
2021/12/09 14:21:52;;;;;;;54.90;29.00;;;;;;;;;;4948432;28;20028;-75
2021/12/09 14:24:23;;;;;;;55.90;31.80;;;;;;;;;;4960742;28;20047;-76
2021/12/09 14:26:52;;;;;;;57.53;30.08;;;;;;;;;;4950288;28;20533;-75
2021/12/09 14:29:18;;;;;;;50.65;29.30;;;;;;;;;;4944476;28;20030;-76
2021/12/09 14:31:46;;;;;;;60.85;32.33;;;;;;;;;;4949735;28;20515;-75
2021/12/09 14:34:13;;;;;;;55.63;31.15;;;;;;;;;;4938834;28;20035;-75
2021/12/09 14:36:40;;;;;;;51.83;30.83;;;;;;;;;;4956287;28;20024;-75
2021/12/09 14:39:07;;;;;;;53.13;29.88;;;;;;;;;;4957837;28;20046;-76
2021/12/09 14:41:35;;;;;;;56.25;30.38;;;;;;;;;;4944388;29;20077;-75
2021/12/09 14:44:02;;;;;;;53.72;29.90;;;;;;;;;;4944258;28;20080;-76
2021/12/09 14:46:34;;;;;;;56.13;29.35;;;;;;;;;;4945057;28;20050;-75
2021/12/09 14:49:03;;;;;;;57.90;31.52;;;;;;;;;;4940268;29;20589;-75
2021/12/09 14:51:31;;;;;;;54.40;30.08;;;;;;;;;;4945537;28;20047;-75
2021/12/09 14:54:03;;;;;;;52.35;30.08;;;;;;;;;;4946312;28;20054;-76
2021/12/09 14:56:34;;;;;;;65.07;32.67;;;;;;;;;;4944159;28;20485;-77
2021/12/09 14:59:19;;;;;;;65.45;32.78;;;;;;;;;;4945199;28;20118;-75
2021/12/09 15:01:47;;;;;;;63.72;34.08;;;;;;;;;;4959438;28;20027;-76
2021/12/09 15:04:17;;;;;;;54.97;31.75;;;;;;;;;;4945690;28;20054;-77
2021/12/09 15:06:51;;;;;;;58.43;33.23;;;;;;;;;;4947958;28;20027;-76
2021/12/09 15:09:20;;;;;;;59.22;31.60;;;;;;;;;;4944455;28;20314;-76
2021/12/09 15:11:48;;;;;;;57.00;32.47;;;;;;;;;;4942695;29;20035;-75
2021/12/09 15:14:25;;;;;;;56.63;31.98;;;;;;;;;;4937532;29;20036;-75
2021/12/09 15:17:12;;;;;;;52.42;29.13;;;;;;;;;;4944988;28;20409;-75
2021/12/09 15:19:39;;;;;;;65.53;32.17;;;;;;;;;;4942489;29;20027;-75
2021/12/09 15:22:09;;;;;;;53.25;30.63;;;;;;;;;;4956987;28;20044;-76
2021/12/09 15:24:36;;;;;;;66.87;32.07;;;;;;;;;;4945696;28;20378;-75
2021/12/09 15:27:02;;;;;;;64.43;31.95;;;;;;;;;;4953428;28;20122;-76